Time;durP1;ratioP1;P1;durP2;ratioP2;P2;SDS_P1;SDS_P2;PMS_P1;PMS_P2;Temp;Humidity;BMP_temperature;BMP_pressure;BME280_temperature;BME280_humidity;BME280_pressure;Samples;Min_cycle;Max_cycle;Signal;HPM_P1;HPM_P2
2023/08/09 00:02:02;;;;;;;12.53;11.73;;;13.70;99.90;;;;;;5042445;28;20276;-53
2023/08/09 00:04:27;;;;;;;13.70;12.80;;;13.70;99.90;;;;;;5041692;28;20229;-51
2023/08/09 00:06:53;;;;;;;13.33;12.53;;;13.60;99.90;;;;;;5041503;28;20209;-48
2023/08/09 00:09:20;;;;;;;13.40;12.60;;;13.60;99.90;;;;;;5042217;28;20220;-54
2023/08/09 00:11:46;;;;;;;13.57;12.73;;;13.50;99.90;;;;;;5041626;28;20178;-53
2023/08/09 00:14:12;;;;;;;14.13;13.20;;;13.50;99.90;;;;;;5042003;28;20416;-53
2023/08/09 00:16:37;;;;;;;13.30;12.60;;;13.40;99.90;;;;;;5040386;28;20222;-55
2023/08/09 00:19:04;;;;;;;13.17;12.20;;;13.40;99.90;;;;;;5041546;28;20872;-53
2023/08/09 00:21:29;;;;;;;13.67;12.77;;;13.40;99.90;;;;;;5042282;28;20655;-56
2023/08/09 00:23:55;;;;;;;13.50;12.70;;;13.30;99.90;;;;;;5039184;28;20472;-51
2023/08/09 00:26:21;;;;;;;14.00;13.10;;;13.30;99.90;;;;;;5041264;28;20755;-48
2023/08/09 00:28:46;;;;;;;13.30;12.47;;;13.30;99.90;;;;;;5039786;28;20186;-48
2023/08/09 00:31:12;;;;;;;12.73;11.93;;;13.30;99.90;;;;;;5041760;28;20189;-54
2023/08/09 00:33:38;;;;;;;13.23;12.43;;;13.30;99.90;;;;;;5039987;28;20625;-56
2023/08/09 00:36:04;;;;;;;13.13;12.33;;;13.30;99.90;;;;;;5040921;28;20874;-55
2023/08/09 00:38:30;;;;;;;12.50;11.80;;;13.30;99.90;;;;;;5038465;28;20528;-56
2023/08/09 00:40:55;;;;;;;12.67;11.97;;;13.40;99.90;;;;;;5029793;28;20801;-56
2023/08/09 00:43:21;;;;;;;12.53;11.80;;;13.40;99.90;;;;;;5021932;28;20186;-48
2023/08/09 00:45:47;;;;;;;13.00;12.30;;;13.40;99.90;;;;;;5040947;28;20190;-39
2023/08/09 00:48:13;;;;;;;13.17;12.40;;;13.50;99.90;;;;;;5041278;28;20684;-43
2023/08/09 00:50:40;;;;;;;12.47;11.77;;;13.50;99.90;;;;;;5039623;28;20472;-40
2023/08/09 00:53:06;;;;;;;12.87;12.17;;;13.50;99.90;;;;;;5041152;28;20182;-45
2023/08/09 00:55:32;;;;;;;13.33;12.43;;;13.50;99.90;;;;;;5020933;28;20463;-42
2023/08/09 00:57:57;;;;;;;12.20;11.60;;;13.50;99.90;;;;;;5040506;28;20440;-42
2023/08/09 01:00:23;;;;;;;12.00;11.30;;;13.50;99.90;;;;;;5040747;28;20186;-41
2023/08/09 01:02:49;;;;;;;12.13;11.43;;;13.60;99.90;;;;;;5021370;28;20297;-40
2023/08/09 01:05:14;;;;;;;11.70;11.10;;;13.60;99.90;;;;;;5040080;28;20300;-42
2023/08/09 01:07:50;;;;;;;11.90;11.20;;;13.60;99.90;;;;;;5040865;28;20220;-40
2023/08/09 01:10:22;;;;;;;12.33;11.70;;;13.60;99.90;;;;;;5038221;28;20934;-40
2023/08/09 01:12:52;;;;;;;12.80;12.00;;;13.60;99.90;;;;;;5040075;28;20440;-40
2023/08/09 01:15:20;;;;;;;12.43;11.73;;;13.60;99.90;;;;;;5038789;28;20442;-40
2023/08/09 01:17:48;;;;;;;12.53;11.77;;;13.60;99.90;;;;;;5039952;28;20930;-42
2023/08/09 01:20:16;;;;;;;11.80;11.20;;;13.60;99.90;;;;;;5039587;28;20435;-40
2023/08/09 01:23:03;;;;;;;12.13;11.53;;;13.70;99.90;;;;;;5040453;28;20427;-40
2023/08/09 01:25:30;;;;;;;12.13;11.30;;;13.70;99.90;;;;;;5037943;28;20967;-40
2023/08/09 01:27:58;;;;;;;11.90;11.30;;;13.70;99.90;;;;;;5040949;28;20460;-39
2023/08/09 01:30:24;;;;;;;11.60;11.00;;;13.80;99.90;;;;;;5039901;28;20428;-39
2023/08/09 01:32:50;;;;;;;12.20;11.60;;;13.80;99.90;;;;;;5040349;28;20421;-39
2023/08/09 01:35:16;;;;;;;11.77;11.00;;;13.80;99.90;;;;;;5021000;28;20197;-40
2023/08/09 01:38:03;;;;;;;12.20;11.40;;;13.80;99.90;;;;;;5039828;28;20423;-44
2023/08/09 01:40:31;;;;;;;12.10;11.50;;;13.90;99.90;;;;;;5038993;28;20968;-40
2023/08/09 01:42:57;;;;;;;12.10;11.50;;;14.00;99.90;;;;;;5021334;28;20439;-39
2023/08/09 01:45:22;;;;;;;12.03;11.40;;;14.20;99.90;;;;;;5037887;28;20436;-40
2023/08/09 01:47:48;;;;;;;11.60;11.00;;;14.30;99.90;;;;;;5039874;28;21346;-39
2023/08/09 01:50:20;;;;;;;12.37;11.77;;;14.30;99.90;;;;;;5039907;28;20185;-40
2023/08/09 01:52:46;;;;;;;12.30;11.50;;;14.30;99.90;;;;;;5040138;28;20181;-40
2023/08/09 01:55:14;;;;;;;11.67;11.07;;;14.30;99.90;;;;;;5039532;28;20442;-41
2023/08/09 01:57:40;;;;;;;12.20;11.53;;;14.30;99.90;;;;;;5038237;28;20448;-40
2023/08/09 02:00:08;;;;;;;11.70;11.10;;;14.30;99.90;;;;;;5037278;28;20791;-41
2023/08/09 02:02:34;;;;;;;11.50;10.90;;;14.30;99.90;;;;;;5038796;28;20212;-39
2023/08/09 02:04:59;;;;;;;11.53;11.03;;;14.30;99.90;;;;;;5038082;28;20437;-40
2023/08/09 02:07:25;;;;;;;11.70;11.10;;;14.30;99.90;;;;;;5039285;28;20209;-44
2023/08/09 02:09:51;;;;;;;11.80;11.17;;;14.30;99.90;;;;;;5039862;28;20200;-42
2023/08/09 02:12:16;;;;;;;12.30;11.60;;;14.30;99.90;;;;;;5039973;28;20182;-41
2023/08/09 02:14:42;;;;;;;11.83;11.23;;;14.30;99.90;;;;;;5036513;28;20182;-40
2023/08/09 02:17:09;;;;;;;12.90;12.10;;;14.30;99.90;;;;;;5035121;28;20239;-40
2023/08/09 02:19:35;;;;;;;11.60;11.10;;;14.30;99.90;;;;;;5034805;28;20177;-39
2023/08/09 02:22:00;;;;;;;11.13;10.60;;;14.30;99.90;;;;;;5038069;28;20466;-41
2023/08/09 02:24:26;;;;;;;12.17;11.47;;;14.30;99.90;;;;;;5039684;28;20634;-41
2023/08/09 02:26:51;;;;;;;11.37;10.77;;;14.30;99.90;;;;;;5039760;28;20413;-42
2023/08/09 02:29:17;;;;;;;11.70;11.10;;;14.30;99.90;;;;;;5038890;28;20965;-43
2023/08/09 02:31:43;;;;;;;11.27;10.70;;;14.30;99.90;;;;;;5039442;28;20284;-41
2023/08/09 02:34:09;;;;;;;12.37;11.67;;;14.20;99.90;;;;;;5039932;28;20188;-40
2023/08/09 02:36:34;;;;;;;12.07;11.33;;;14.20;99.90;;;;;;5021177;28;20428;-40
2023/08/09 02:39:00;;;;;;;12.80;12.00;;;14.20;99.90;;;;;;5039590;28;20173;-40
2023/08/09 02:41:25;;;;;;;12.40;11.63;;;14.20;99.90;;;;;;5038775;28;20182;-39
2023/08/09 02:43:51;;;;;;;12.80;12.10;;;14.20;99.90;;;;;;5039225;28;20244;-39
2023/08/09 02:46:17;;;;;;;12.47;11.77;;;14.20;99.90;;;;;;5038885;28;20185;-41
2023/08/09 02:48:42;;;;;;;12.43;11.70;;;14.20;99.90;;;;;;5039379;28;20217;-41
2023/08/09 02:51:08;;;;;;;12.17;11.57;;;14.20;99.90;;;;;;5039667;28;20185;-39
2023/08/09 02:53:55;;;;;;;11.70;11.10;;;14.20;99.90;;;;;;5020973;28;20185;-45
2023/08/09 02:56:21;;;;;;;12.47;11.70;;;14.20;99.90;;;;;;5038824;28;20185;-40
2023/08/09 02:58:47;;;;;;;12.20;11.47;;;14.10;99.90;;;;;;5043000;28;20942;-40
2023/08/09 03:01:12;;;;;;;12.40;11.70;;;14.10;99.90;;;;;;5041691;28;20212;-46
2023/08/09 03:03:38;;;;;;;11.97;11.37;;;14.10;99.90;;;;;;5043615;28;20184;-40
2023/08/09 03:06:04;;;;;;;11.73;11.13;;;14.00;99.90;;;;;;5043484;28;20201;-44
2023/08/09 03:08:31;;;;;;;12.30;11.60;;;14.00;99.90;;;;;;5042386;28;20211;-39
2023/08/09 03:10:57;;;;;;;12.40;11.60;;;14.00;99.90;;;;;;5042737;28;20470;-40
2023/08/09 03:13:22;;;;;;;12.50;11.77;;;14.10;99.90;;;;;;5043130;28;20491;-40
2023/08/09 03:15:48;;;;;;;12.40;11.67;;;14.10;99.90;;;;;;5042039;28;20840;-40
2023/08/09 03:18:14;;;;;;;11.53;10.93;;;14.10;99.90;;;;;;5041026;28;20198;-40
2023/08/09 03:20:39;;;;;;;12.30;11.53;;;14.20;99.90;;;;;;5042942;28;20427;-39
2023/08/09 03:23:07;;;;;;;12.20;11.50;;;14.20;99.90;;;;;;5043509;28;20178;-42
2023/08/09 03:25:34;;;;;;;11.30;10.70;;;14.20;99.90;;;;;;5042767;28;20237;-39
2023/08/09 03:27:59;;;;;;;11.73;11.13;;;14.20;99.90;;;;;;5042035;28;20582;-40
2023/08/09 03:30:25;;;;;;;12.13;11.43;;;14.20;99.90;;;;;;5043104;28;20458;-40
2023/08/09 03:32:50;;;;;;;12.33;11.50;;;14.10;99.90;;;;;;5040714;28;20655;-40
2023/08/09 03:35:16;;;;;;;13.03;12.23;;;14.10;99.90;;;;;;5042432;28;20849;-40
2023/08/09 03:37:42;;;;;;;12.20;11.40;;;14.10;99.90;;;;;;5043372;28;20181;-40
2023/08/09 03:40:12;;;;;;;11.97;11.30;;;14.10;99.90;;;;;;5042245;28;20459;-40
2023/08/09 03:42:39;;;;;;;13.17;12.30;;;14.10;99.90;;;;;;5042674;28;20182;-40
2023/08/09 03:45:06;;;;;;;13.60;12.90;;;14.00;99.90;;;;;;5042653;28;20424;-41
2023/08/09 03:47:32;;;;;;;13.43;12.53;;;13.90;99.90;;;;;;5041078;28;20994;-40
2023/08/09 03:49:59;;;;;;;14.00;13.00;;;13.90;99.90;;;;;;5042203;28;20523;-40
2023/08/09 03:52:25;;;;;;;14.47;13.47;;;13.90;99.90;;;;;;5042512;28;20397;-40
2023/08/09 03:54:52;;;;;;;14.60;13.80;;;13.90;99.90;;;;;;5042234;28;20481;-40
2023/08/09 03:57:19;;;;;;;14.20;13.40;;;13.90;99.90;;;;;;5039163;28;20989;-42
2023/08/09 03:59:45;;;;;;;15.00;14.10;;;13.90;99.90;;;;;;5042439;28;20511;-39
2023/08/09 04:02:11;;;;;;;14.60;13.60;;;13.90;99.90;;;;;;5023737;28;20546;-41
2023/08/09 04:04:37;;;;;;;14.07;13.37;;;13.90;99.90;;;;;;5041853;28;20428;-40
2023/08/09 04:07:03;;;;;;;14.30;13.40;;;13.90;99.90;;;;;;5040675;28;20868;-40
2023/08/09 04:09:28;;;;;;;13.53;12.73;;;13.90;99.90;;;;;;5040105;28;20522;-40
2023/08/09 04:11:54;;;;;;;13.40;12.63;;;13.90;99.90;;;;;;5042136;28;20178;-45
2023/08/09 04:14:19;;;;;;;13.30;12.60;;;13.80;99.90;;;;;;5040492;28;20184;-41
2023/08/09 04:16:46;;;;;;;14.63;13.80;;;13.80;99.90;;;;;;5041972;28;20196;-41
2023/08/09 04:19:11;;;;;;;15.07;14.10;;;13.80;99.90;;;;;;5021528;28;20279;-41
2023/08/09 04:21:37;;;;;;;14.30;13.50;;;13.80;99.90;;;;;;5041144;28;20507;-41
2023/08/09 04:24:04;;;;;;;13.70;13.00;;;13.80;99.90;;;;;;5040746;28;20602;-41
2023/08/09 04:26:30;;;;;;;15.00;14.00;;;13.80;99.90;;;;;;5042017;28;20412;-41
2023/08/09 04:28:55;;;;;;;14.83;13.93;;;13.80;99.90;;;;;;5039209;28;20804;-42
2023/08/09 04:31:21;;;;;;;15.27;14.37;;;13.80;99.90;;;;;;5037917;28;20618;-39
2023/08/09 04:33:51;;;;;;;14.60;13.73;;;13.80;99.90;;;;;;5040870;28;20240;-41
2023/08/09 04:36:18;;;;;;;14.77;13.87;;;13.90;99.90;;;;;;5040078;28;20178;-49
2023/08/09 04:38:43;;;;;;;15.90;14.90;;;13.90;99.90;;;;;;5041581;28;20424;-52
2023/08/09 04:41:12;;;;;;;14.90;14.10;;;13.90;99.90;;;;;;5041961;28;20427;-42
2023/08/09 04:43:44;;;;;;;15.57;14.60;;;13.90;99.90;;;;;;5040839;28;20208;-40
2023/08/09 04:46:11;;;;;;;15.80;14.80;;;13.90;99.90;;;;;;5040984;28;20522;-43
2023/08/09 04:48:37;;;;;;;16.90;15.60;;;13.90;99.90;;;;;;5023495;28;20468;-43
2023/08/09 04:51:04;;;;;;;16.17;15.07;;;13.90;99.90;;;;;;5040964;28;20510;-44
2023/08/09 04:53:29;;;;;;;15.30;14.40;;;13.90;99.90;;;;;;5041207;28;20896;-45
2023/08/09 04:55:55;;;;;;;16.03;15.03;;;13.90;99.90;;;;;;5041197;28;20410;-40
2023/08/09 04:58:21;;;;;;;16.20;15.20;;;13.90;99.90;;;;;;5041553;28;20221;-44
2023/08/09 05:00:46;;;;;;;15.40;14.53;;;13.90;99.90;;;;;;5041041;28;20193;-43
2023/08/09 05:03:12;;;;;;;16.60;15.50;;;13.90;99.90;;;;;;5039821;28;20282;-40
2023/08/09 05:05:37;;;;;;;16.57;15.57;;;13.90;99.90;;;;;;5040806;28;20670;-42
2023/08/09 05:08:03;;;;;;;16.10;15.17;;;13.90;99.90;;;;;;5040976;28;20297;-44
2023/08/09 05:10:29;;;;;;;16.17;15.07;;;13.90;99.90;;;;;;5041077;28;20206;-41
2023/08/09 05:12:55;;;;;;;16.23;15.17;;;13.90;99.90;;;;;;5040783;28;20471;-46
2023/08/09 05:15:20;;;;;;;15.80;14.73;;;13.90;99.90;;;;;;5040821;28;20194;-44
2023/08/09 05:17:46;;;;;;;16.53;15.43;;;13.90;99.90;;;;;;5040918;28;20214;-44
2023/08/09 05:20:12;;;;;;;16.93;15.33;;;13.80;99.90;;;;;;5040101;28;20260;-44
2023/08/09 05:22:38;;;;;;;15.70;14.70;;;13.80;99.90;;;;;;5040947;28;20200;-42
2023/08/09 05:25:04;;;;;;;16.00;14.90;;;13.80;99.90;;;;;;5040447;28;20492;-43
2023/08/09 05:27:29;;;;;;;16.47;15.27;;;13.80;99.90;;;;;;5020902;28;20463;-42
2023/08/09 05:29:55;;;;;;;16.37;15.27;;;13.70;99.90;;;;;;5040372;28;20412;-45
2023/08/09 05:32:21;;;;;;;15.37;14.47;;;13.70;99.90;;;;;;5040318;28;20280;-42
2023/08/09 05:34:47;;;;;;;15.40;14.30;;;13.70;99.90;;;;;;5040333;28;20616;-45
2023/08/09 05:37:13;;;;;;;16.30;15.20;;;13.80;99.90;;;;;;5040455;28;20425;-49
2023/08/09 05:39:39;;;;;;;15.50;14.40;;;13.70;99.90;;;;;;5040826;28;20189;-43
2023/08/09 05:42:04;;;;;;;19.53;17.90;;;13.60;99.90;;;;;;5040706;28;20185;-43
2023/08/09 05:44:30;;;;;;;15.87;14.67;;;13.60;99.90;;;;;;5039021;28;20466;-48
2023/08/09 05:46:56;;;;;;;14.73;13.73;;;13.50;99.90;;;;;;5038488;28;20579;-43
2023/08/09 05:49:22;;;;;;;14.20;13.30;;;13.50;99.90;;;;;;5039764;28;20174;-47
2023/08/09 05:51:47;;;;;;;14.07;13.17;;;13.50;99.90;;;;;;5040257;28;20735;-43
2023/08/09 05:54:13;;;;;;;13.40;12.60;;;13.50;99.90;;;;;;5040163;28;20189;-47
2023/08/09 05:56:39;;;;;;;13.73;12.97;;;13.50;99.90;;;;;;5040242;28;20624;-50
2023/08/09 05:59:05;;;;;;;13.90;13.07;;;13.50;99.90;;;;;;5040181;28;20182;-49
2023/08/09 06:01:31;;;;;;;14.27;13.37;;;13.50;99.90;;;;;;5039731;28;20188;-49
2023/08/09 06:03:57;;;;;;;13.67;12.70;;;13.50;99.90;;;;;;5040019;28;20918;-48
2023/08/09 06:06:23;;;;;;;14.10;13.30;;;13.50;99.90;;;;;;5040223;28;20474;-51
2023/08/09 06:08:49;;;;;;;13.70;12.90;;;13.50;99.90;;;;;;5039769;28;20463;-43
2023/08/09 06:11:15;;;;;;;14.63;13.63;;;13.50;99.90;;;;;;5040261;28;20462;-45
2023/08/09 06:13:41;;;;;;;13.70;12.90;;;13.50;99.90;;;;;;5039966;28;20416;-45
2023/08/09 06:16:06;;;;;;;14.13;13.33;;;13.50;99.90;;;;;;5038588;28;20518;-49
2023/08/09 06:18:32;;;;;;;13.40;12.70;;;13.50;99.90;;;;;;5039682;28;20623;-47
2023/08/09 06:20:58;;;;;;;14.27;13.47;;;13.60;99.90;;;;;;5021566;28;20190;-46
2023/08/09 06:23:24;;;;;;;14.03;13.23;;;13.60;99.90;;;;;;5039698;28;20197;-48
2023/08/09 06:25:50;;;;;;;13.80;13.00;;;13.60;99.90;;;;;;5021937;28;20424;-44
2023/08/09 06:28:18;;;;;;;14.87;14.00;;;13.60;99.90;;;;;;5039584;28;20463;-49
2023/08/09 06:30:44;;;;;;;14.70;13.80;;;13.70;99.90;;;;;;5021237;28;20634;-43
2023/08/09 06:33:10;;;;;;;14.30;13.50;;;13.80;99.90;;;;;;5039120;28;20953;-45
2023/08/09 06:35:35;;;;;;;14.07;13.27;;;13.80;99.90;;;;;;5039214;28;20316;-44
2023/08/09 06:38:01;;;;;;;14.40;13.40;;;13.70;99.90;;;;;;5039019;28;20280;-43
2023/08/09 06:40:26;;;;;;;13.70;12.90;;;13.70;99.90;;;;;;5021321;28;20185;-43
2023/08/09 06:42:52;;;;;;;14.40;13.60;;;13.60;99.90;;;;;;5039727;28;20196;-51
2023/08/09 06:45:18;;;;;;;14.30;13.40;;;13.50;99.90;;;;;;5038690;28;20209;-44
2023/08/09 06:47:43;;;;;;;13.83;13.03;;;13.50;99.90;;;;;;5039194;28;20665;-47
2023/08/09 06:50:09;;;;;;;14.43;13.63;;;13.50;99.90;;;;;;5039370;28;20178;-47
2023/08/09 06:52:36;;;;;;;14.10;13.20;;;13.50;99.90;;;;;;5039236;28;20196;-45
2023/08/09 06:55:07;;;;;;;14.40;13.60;;;13.60;99.90;;;;;;5039155;28;20459;-47
2023/08/09 06:57:33;;;;;;;14.80;13.90;;;13.50;99.90;;;;;;5039127;28;20428;-45
2023/08/09 06:59:59;;;;;;;14.83;13.77;;;13.60;99.90;;;;;;5017768;28;20428;-43
2023/08/09 07:02:26;;;;;;;13.90;13.10;;;13.60;99.90;;;;;;5039165;28;20432;-43
2023/08/09 07:04:53;;;;;;;15.30;14.40;;;13.70;99.90;;;;;;5039211;28;20434;-48
2023/08/09 07:07:19;;;;;;;14.60;13.70;;;13.80;99.90;;;;;;5039229;28;20992;-44
2023/08/09 07:09:45;;;;;;;13.50;12.70;;;13.90;99.90;;;;;;5021039;28;20458;-45
2023/08/09 07:12:11;;;;;;;13.77;13.00;;;14.10;99.90;;;;;;5038482;28;20893;-45
2023/08/09 07:14:37;;;;;;;13.20;12.50;;;14.20;99.90;;;;;;5038934;28;20808;-46
2023/08/09 07:17:02;;;;;;;13.60;12.90;;;14.20;99.90;;;;;;5038883;28;20425;-50
2023/08/09 07:19:28;;;;;;;13.57;12.77;;;14.20;99.90;;;;;;5038906;28;20189;-43
2023/08/09 07:21:54;;;;;;;13.83;13.13;;;14.30;99.90;;;;;;5037063;28;20950;-45
2023/08/09 07:24:20;;;;;;;13.50;12.80;;;14.30;99.90;;;;;;5037774;28;20598;-45
2023/08/09 07:26:45;;;;;;;13.33;12.63;;;14.40;99.90;;;;;;5038901;28;20647;-46
2023/08/09 07:29:12;;;;;;;14.30;13.50;;;14.50;99.90;;;;;;5039291;28;20178;-45
2023/08/09 07:31:38;;;;;;;14.20;13.40;;;14.40;99.90;;;;;;5039292;28;20258;-45
2023/08/09 07:34:03;;;;;;;13.50;12.70;;;14.40;99.90;;;;;;5038748;28;20779;-44
2023/08/09 07:36:29;;;;;;;13.90;13.10;;;14.40;99.90;;;;;;5038942;28;20645;-43
2023/08/09 07:38:55;;;;;;;13.70;13.00;;;14.40;99.90;;;;;;5020839;28;20189;-44
2023/08/09 07:41:21;;;;;;;13.30;12.60;;;14.50;99.90;;;;;;5038863;28;20419;-44
2023/08/09 07:43:48;;;;;;;12.93;12.03;;;14.50;99.90;;;;;;5042440;28;20190;-43
2023/08/09 07:46:13;;;;;;;13.27;12.57;;;14.60;99.90;;;;;;5042558;28;20549;-45
2023/08/09 07:48:39;;;;;;;13.03;12.40;;;14.60;99.90;;;;;;5042456;28;20452;-43
2023/08/09 07:51:06;;;;;;;13.47;12.57;;;14.80;99.90;;;;;;5042731;28;20658;-48
2023/08/09 07:53:32;;;;;;;12.80;12.20;;;15.00;99.90;;;;;;5037865;28;20644;-47
2023/08/09 07:55:58;;;;;;;13.07;12.37;;;15.30;99.90;;;;;;5041204;28;20436;-46
2023/08/09 07:58:23;;;;;;;14.20;13.50;;;15.40;99.90;;;;;;5041622;28;20562;-45
2023/08/09 08:00:49;;;;;;;13.00;12.30;;;15.50;99.90;;;;;;5041438;28;20192;-46
2023/08/09 08:03:15;;;;;;;14.17;13.43;;;15.70;99.90;;;;;;5041803;28;20185;-44
2023/08/09 08:05:40;;;;;;;13.70;13.00;;;15.70;99.90;;;;;;5041987;28;20433;-47
2023/08/09 08:08:06;;;;;;;12.40;11.80;;;15.80;99.90;;;;;;5041934;28;20285;-44
2023/08/09 08:10:32;;;;;;;12.87;12.27;;;16.00;99.90;;;;;;5041853;28;20201;-44
2023/08/09 08:12:58;;;;;;;13.50;12.70;;;16.20;99.90;;;;;;5042142;28;21032;-43
2023/08/09 08:15:24;;;;;;;11.87;11.27;;;16.40;99.90;;;;;;5042307;28;20484;-46
2023/08/09 08:17:51;;;;;;;12.60;11.97;;;16.60;99.90;;;;;;5041783;28;20200;-43
2023/08/09 08:20:20;;;;;;;11.70;11.10;;;16.60;99.90;;;;;;5041819;28;20197;-45
2023/08/09 08:22:49;;;;;;;12.73;12.13;;;16.50;99.90;;;;;;5041789;28;20497;-46
2023/08/09 08:25:17;;;;;;;12.90;12.30;;;16.50;99.90;;;;;;5041594;28;20632;-41
2023/08/09 08:27:45;;;;;;;12.50;11.90;;;16.80;99.90;;;;;;5041388;28;20468;-45
2023/08/09 08:30:17;;;;;;;12.33;11.70;;;16.80;99.90;;;;;;5041477;28;20879;-43
2023/08/09 08:32:46;;;;;;;11.90;11.40;;;16.90;99.90;;;;;;5041633;28;20925;-45
2023/08/09 08:35:13;;;;;;;12.00;11.40;;;17.00;99.90;;;;;;5041451;28;20586;-41
2023/08/09 08:37:42;;;;;;;11.80;11.30;;;17.20;99.90;;;;;;5041208;28;20420;-51
2023/08/09 08:40:17;;;;;;;11.80;11.30;;;17.50;99.90;;;;;;5022912;28;20436;-54
2023/08/09 08:42:47;;;;;;;11.10;10.60;;;17.70;99.90;;;;;;5042113;28;20416;-50
2023/08/09 08:45:15;;;;;;;12.20;11.60;;;18.10;99.90;;;;;;5041439;28;20462;-44
2023/08/09 08:47:42;;;;;;;11.50;11.00;;;18.30;99.90;;;;;;5041442;28;20482;-52
2023/08/09 08:50:09;;;;;;;11.50;10.93;;;18.50;99.90;;;;;;5040840;28;20894;-48
2023/08/09 08:52:42;;;;;;;11.27;10.77;;;18.50;99.90;;;;;;5041243;28;20416;-47
2023/08/09 08:55:11;;;;;;;11.20;10.70;;;18.40;99.90;;;;;;5040336;28;20894;-50
2023/08/09 08:57:39;;;;;;;11.30;10.80;;;18.40;99.90;;;;;;5040952;28;20435;-48
2023/08/09 09:00:15;;;;;;;11.30;10.80;;;18.30;99.90;;;;;;5041035;28;20519;-49
2023/08/09 09:02:43;;;;;;;11.17;10.67;;;18.30;99.90;;;;;;5041205;28;20824;-46
2023/08/09 09:05:10;;;;;;;12.10;11.53;;;18.30;99.90;;;;;;5040595;28;20451;-51
2023/08/09 09:07:36;;;;;;;11.73;11.23;;;18.20;99.90;;;;;;5040905;28;20468;-46
2023/08/09 09:10:06;;;;;;;11.90;11.30;;;18.10;99.90;;;;;;5040628;28;20447;-49
2023/08/09 09:12:36;;;;;;;12.17;11.60;;;18.00;99.90;;;;;;5041049;28;20401;-50
2023/08/09 09:15:06;;;;;;;11.03;10.53;;;18.00;99.90;;;;;;5040583;28;20478;-50
2023/08/09 09:17:40;;;;;;;10.40;9.97;;;17.90;99.90;;;;;;5040031;28;20845;-50
2023/08/09 09:20:10;;;;;;;11.30;10.80;;;18.00;99.90;;;;;;5039989;28;20447;-52
2023/08/09 09:22:37;;;;;;;12.37;11.77;;;18.00;99.90;;;;;;5040956;28;21266;-51
2023/08/09 09:25:09;;;;;;;12.17;11.57;;;18.00;99.90;;;;;;5040260;28;20586;-51
2023/08/09 09:27:34;;;;;;;12.70;12.10;;;18.20;99.90;;;;;;5040500;28;20452;-50
2023/08/09 09:30:09;;;;;;;11.53;10.93;;;18.50;99.90;;;;;;5022177;28;20751;-50
2023/08/09 09:32:35;;;;;;;12.10;11.60;;;18.70;99.90;;;;;;5040521;28;20192;-50
2023/08/09 09:35:01;;;;;;;12.00;11.50;;;18.90;99.90;;;;;;5040307;28;20412;-51
2023/08/09 09:37:28;;;;;;;12.30;11.80;;;19.00;99.90;;;;;;5040787;28;20420;-47
2023/08/09 09:39:54;;;;;;;12.47;11.87;;;19.10;99.90;;;;;;5040064;28;20485;-52
2023/08/09 09:42:33;;;;;;;12.23;11.53;;;19.40;99.90;;;;;;5040130;28;20527;-51
2023/08/09 09:45:07;;;;;;;12.00;11.40;;;20.20;99.90;;;;;;5040292;28;20448;-48
2023/08/09 09:47:34;;;;;;;11.80;11.20;;;21.10;99.90;;;;;;5021897;28;20464;-51
2023/08/09 09:50:01;;;;;;;12.30;11.70;;;21.80;99.90;;;;;;5039809;28;20495;-47
2023/08/09 09:52:28;;;;;;;11.90;11.40;;;22.20;99.90;;;;;;5039972;28;20412;-53
2023/08/09 09:54:55;;;;;;;12.10;11.60;;;22.10;99.90;;;;;;5040079;28;20423;-52
2023/08/09 09:57:21;;;;;;;12.47;11.90;;;21.90;99.90;;;;;;5040638;28;20412;-54
2023/08/09 09:59:46;;;;;;;11.83;11.30;;;21.60;99.90;;;;;;5039810;28;20431;-49
2023/08/09 10:02:13;;;;;;;12.07;11.57;;;21.50;99.90;;;;;;5040099;28;21433;-49
2023/08/09 10:04:40;;;;;;;11.50;11.00;;;21.60;99.90;;;;;;5039501;28;20655;-51
2023/08/09 10:07:07;;;;;;;12.10;11.60;;;21.70;99.90;;;;;;5039293;28;20456;-50
2023/08/09 10:09:34;;;;;;;12.10;11.60;;;21.70;99.10;;;;;;5039712;28;20451;-53
2023/08/09 10:12:03;;;;;;;12.60;11.90;;;22.10;96.20;;;;;;5039488;28;20474;-50
2023/08/09 10:14:30;;;;;;;10.93;10.43;;;22.80;99.90;;;;;;5037981;28;20429;-53
2023/08/09 10:16:59;;;;;;;11.83;11.33;;;23.40;98.10;;;;;;5039654;28;20428;-52
2023/08/09 10:19:26;;;;;;;11.53;11.03;;;24.00;93.30;;;;;;5039356;28;20412;-51
2023/08/09 10:21:54;;;;;;;11.50;11.00;;;24.50;90.20;;;;;;5039597;28;20409;-51
2023/08/09 10:24:20;;;;;;;11.60;11.10;;;25.20;85.30;;;;;;5039248;28;21010;-52
2023/08/09 10:26:49;;;;;;;11.53;10.87;;;25.90;77.40;;;;;;5039351;28;20417;-50
2023/08/09 10:29:21;;;;;;;11.70;11.20;;;26.80;61.80;;;;;;5039278;28;20237;-49
2023/08/09 10:31:53;;;;;;;12.17;11.63;;;27.20;58.40;;;;;;5039215;28;20432;-53
2023/08/09 10:34:37;;;;;;;12.10;11.47;;;27.30;54.20;;;;;;5039018;28;20834;-50
2023/08/09 10:37:06;;;;;;;12.43;11.93;;;27.10;54.40;;;;;;5039154;28;20438;-47
2023/08/09 10:39:33;;;;;;;12.50;11.97;;;26.60;50.40;;;;;;5039552;28;20439;-47
2023/08/09 10:42:01;;;;;;;12.10;11.60;;;25.70;54.00;;;;;;5039504;28;20419;-50
2023/08/09 10:44:44;;;;;;;13.20;12.50;;;25.20;57.00;;;;;;5038946;28;20436;-49
2023/08/09 10:47:19;;;;;;;12.13;11.53;;;24.70;56.60;;;;;;5039139;28;20520;-51
2023/08/09 10:49:47;;;;;;;11.87;11.37;;;24.40;58.80;;;;;;5039795;28;20960;-52
2023/08/09 10:52:17;;;;;;;12.60;12.00;;;24.20;68.20;;;;;;5039630;28;20424;-49
2023/08/09 10:54:44;;;;;;;13.00;12.40;;;24.00;63.10;;;;;;5039698;28;20420;-53
2023/08/09 10:57:11;;;;;;;12.80;12.20;;;23.50;69.50;;;;;;5039027;28;20858;-44
2023/08/09 10:59:43;;;;;;;12.83;12.27;;;23.10;76.60;;;;;;5038840;28;20786;-49
2023/08/09 11:02:09;;;;;;;12.60;12.10;;;22.60;77.30;;;;;;5038829;28;20420;-52
2023/08/09 11:04:35;;;;;;;13.17;12.57;;;22.20;78.90;;;;;;5039169;28;20938;-50
2023/08/09 11:07:01;;;;;;;12.33;11.80;;;22.00;83.90;;;;;;5039251;28;20834;-52
2023/08/09 11:09:29;;;;;;;12.37;11.87;;;22.00;86.90;;;;;;5038896;28;20433;-50
2023/08/09 11:11:55;;;;;;;12.07;11.57;;;22.60;85.60;;;;;;5038913;28;20430;-52
2023/08/09 11:14:23;;;;;;;11.80;11.30;;;23.60;75.20;;;;;;5038512;28;20910;-52
2023/08/09 11:16:49;;;;;;;11.80;11.30;;;24.40;67.30;;;;;;5039579;28;20640;-51
2023/08/09 11:19:17;;;;;;;11.50;11.00;;;25.00;56.20;;;;;;5025163;28;20435;-46
2023/08/09 11:21:44;;;;;;;12.17;11.67;;;25.70;55.00;;;;;;5042878;28;20897;-51
2023/08/09 11:24:11;;;;;;;12.17;11.57;;;26.40;50.50;;;;;;5042835;28;20456;-50
2023/08/09 11:26:39;;;;;;;11.90;11.40;;;27.30;46.60;;;;;;5043207;28;20416;-52
2023/08/09 11:29:06;;;;;;;10.77;10.27;;;27.80;44.10;;;;;;5042522;28;20464;-50
2023/08/09 11:31:45;;;;;;;11.80;11.30;;;28.30;39.00;;;;;;5043392;28;20450;-54
2023/08/09 11:34:13;;;;;;;10.80;10.40;;;28.20;36.30;;;;;;5042849;28;20419;-53
2023/08/09 11:36:40;;;;;;;11.83;11.33;;;28.60;38.70;;;;;;5043088;28;20411;-53
2023/08/09 11:39:07;;;;;;;12.00;11.50;;;29.30;37.10;;;;;;5043163;28;20421;-52
2023/08/09 11:41:44;;;;;;;11.93;11.33;;;29.50;35.20;;;;;;5042315;28;21257;-53
2023/08/09 11:44:14;;;;;;;11.50;11.00;;;29.20;35.30;;;;;;5041950;28;20501;-51
2023/08/09 11:46:44;;;;;;;10.53;10.13;;;29.10;32.90;;;;;;5042344;28;20763;-52
2023/08/09 11:49:09;;;;;;;11.57;11.07;;;28.40;33.40;;;;;;5042657;28;20420;-53
2023/08/09 11:51:36;;;;;;;11.50;11.00;;;27.40;35.30;;;;;;5042533;28;20404;-50
2023/08/09 11:54:02;;;;;;;11.47;11.07;;;26.40;37.10;;;;;;5024023;28;20182;-53
2023/08/09 11:56:32;;;;;;;11.80;11.30;;;26.50;38.40;;;;;;5042253;28;20419;-46
2023/08/09 11:59:00;;;;;;;11.67;11.17;;;26.90;38.50;;;;;;5041973;28;20417;-53
2023/08/09 12:01:33;;;;;;;11.90;11.30;;;27.60;36.70;;;;;;5042384;28;20408;-53
2023/08/09 12:04:00;;;;;;;10.90;10.50;;;27.10;35.80;;;;;;5041984;28;20545;-54
2023/08/09 12:06:50;;;;;;;11.23;10.83;;;26.80;37.00;;;;;;5041931;28;20555;-53
2023/08/09 12:09:37;;;;;;;10.27;9.87;;;26.80;37.20;;;;;;5042031;28;20428;-44
2023/08/09 12:12:19;;;;;;;11.20;10.70;;;27.00;37.40;;;;;;5041241;28;20416;-45
2023/08/09 12:14:49;;;;;;;10.70;10.30;;;27.60;33.40;;;;;;5040681;28;20810;-44
2023/08/09 12:17:27;;;;;;;11.40;10.90;;;28.20;31.60;;;;;;5023786;28;20460;-46
2023/08/09 12:20:06;;;;;;;11.77;11.30;;;28.80;27.10;;;;;;5041903;28;20922;-45
2023/08/09 12:22:33;;;;;;;12.13;11.63;;;29.00;29.60;;;;;;5024161;28;20475;-41
2023/08/09 12:24:59;;;;;;;11.50;11.10;;;29.20;27.80;;;;;;5041389;28;20917;-49
2023/08/09 12:27:25;;;;;;;11.10;10.70;;;29.60;28.30;;;;;;5041931;28;21225;-43
2023/08/09 12:29:53;;;;;;;11.77;11.27;;;29.70;27.10;;;;;;5040665;28;20686;-47